Brisbane - Nearby METAR Reports

YBBN - Brisbane Intl Ar, Australia
Distance from station: NNE 11km
Updated: 18/05/2022 01:00
Mostly cloudy
Mostly cloudy
 Wind from S
Wind: S 13 km/h
Temperature: 21°C
Dew Point: 18°C
Humidity: 83%
Barometer: 1018 hPa
Clouds: Mostly cloudy
Visibility: 10 km
Cloud details: Few Clouds 549 m
Mostly cloudy 914 m
2022/05/17 15:00 YBBN 171500Z 19007KT 9999 FEW018 BKN030 21/18 Q1018
YAMB - Amberley, Australia
Distance from station: WSW 42km
Updated: 18/05/2022 01:00
Overcast
Overcast
 Wind from ENE
Wind: ENE 7 km/h
Temperature: 20°C
Dew Point: 19°C
Humidity: 94%
Barometer: 1018 hPa
Clouds: Overcast
Visibility: 10 km
Cloud details: Mostly cloudy 732 m
Overcast 1128 m
2022/05/17 15:00 YAMB 171500Z AUTO 07004KT 9999 // BKN024 OVC037 20/19 Q1018
 
YBCG - Coolangatta Aws, Australia
Distance from station: SSE 102km
Updated: 18/05/2022 01:00
Mostly cloudy
Mostly cloudy
 Wind from SW
Wind: SW 11 km/h
Temperature: 21°C
Dew Point: 18°C
Humidity: 83%
Barometer: 1018 hPa
Clouds: Mostly cloudy
Visibility: 10 km
Cloud details: Partly cloudy 579 m
Mostly cloudy 732 m
Mostly cloudy 853 m
2022/05/17 15:00 YBCG 171500Z AUTO 22006KT 9999 // SCT019 BKN024 BKN028 21/18 Q1018